Ashland, Alabama
Current Conditions -  °F | °C
As of 5:53 PM on Sunday 21 Dec 2014 (Local Time) from KANB Reporting Station
Overcast Overcast  
Wind Chill: 52°   Ceiling: 1300
Heat Index: 52°   Visibility: 10mi
Dew Point: 46°   Wind: 7mph
Humidity: 80%   Direction: 90°E
Pressure: 30.08"   Gusts: NA
Location:  33.27°N, 85.84°W
Report Text: KANB 212353Z AUTO 09006KT 10SM OVC013 11/08 A3008 RMK AO2 SLP190 T01110078 10122 20111 58000
Loading
Personal Weather Stations






























Interactive Weather Map New forecast layout! Learn more

10-Day Weather Forecast

Advertisements
Track Severe Weather on mobile